Time;durP1;ratioP1;P1;durP2;ratioP2;P2;SDS_P1;SDS_P2;PMS_P1;PMS_P2;Temp;Humidity;BMP_temperature;BMP_pressure;BME280_temperature;BME280_humidity;BME280_pressure;Samples;Min_cycle;Max_cycle;Signal;HPM_P1;HPM_P2
2022/10/28 06:08:13;;;;;;;15.75;14.25;;;10.20;99.90;;;;;;5109650;27;20569;-76
2022/10/28 06:10:40;;;;;;;13.52;12.32;;;10.40;99.90;;;;;;5089662;28;20684;-74
2022/10/28 06:13:07;;;;;;;20.65;13.52;;;10.40;99.90;;;;;;5090476;28;20657;-75
2022/10/28 06:18:55;;;;;;;15.25;13.65;;;10.40;99.90;;;;;;5103448;28;20196;-76
2022/10/28 06:21:20;;;;;;;16.08;14.45;;;10.50;99.90;;;;;;5090277;28;20177;-75
2022/10/28 06:23:56;;;;;;;19.83;17.92;;;10.50;99.90;;;;;;5089637;28;20189;-76
2022/10/28 06:26:21;;;;;;;16.42;14.73;;;10.60;99.90;;;;;;5089638;28;20279;-74
2022/10/28 06:28:47;;;;;;;17.10;14.02;;;10.50;99.90;;;;;;5089013;28;20277;-73
2022/10/28 06:31:13;;;;;;;19.30;15.57;;;10.60;99.90;;;;;;5089289;28;20223;-74
2022/10/28 06:33:38;;;;;;;16.25;14.70;;;10.70;99.90;;;;;;5089049;28;20177;-74
2022/10/28 06:36:04;;;;;;;19.58;17.67;;;10.70;99.90;;;;;;5089219;28;20173;-75
2022/10/28 06:38:30;;;;;;;24.10;19.67;;;10.70;99.90;;;;;;5089876;28;20196;-74
2022/10/28 06:40:58;;;;;;;25.80;21.50;;;10.90;99.90;;;;;;5091033;28;20211;-75
2022/10/28 06:43:24;;;;;;;24.85;21.90;;;11.10;99.90;;;;;;5089111;28;20181;-75
2022/10/28 06:45:54;;;;;;;24.17;20.40;;;11.30;99.90;;;;;;5090056;28;20207;-75
2022/10/28 06:48:19;;;;;;;26.55;19.15;;;11.50;99.90;;;;;;5090825;28;20204;-74
2022/10/28 06:50:45;;;;;;;21.52;19.23;;;11.70;99.90;;;;;;5088831;28;20180;-75
2022/10/28 06:53:10;;;;;;;21.33;16.75;;;11.70;99.90;;;;;;5089059;28;20234;-73
2022/10/28 06:55:36;;;;;;;20.70;16.67;;;11.80;99.90;;;;;;5099268;28;20176;-73
2022/10/28 06:58:02;;;;;;;17.42;14.80;;;11.90;99.90;;;;;;5109151;28;20184;-74
2022/10/28 07:00:30;;;;;;;18.52;14.30;;;11.80;99.90;;;;;;5090530;28;20181;-73
2022/10/28 07:02:56;;;;;;;16.73;14.40;;;11.50;99.90;;;;;;5089646;28;20173;-73
2022/10/28 07:05:24;;;;;;;16.48;14.70;;;11.40;99.90;;;;;;5088182;28;20645;-73
2022/10/28 07:07:49;;;;;;;16.58;14.88;;;11.40;99.90;;;;;;5082089;28;20212;-73
2022/10/28 07:10:15;;;;;;;17.40;15.45;;;11.40;99.90;;;;;;5092079;28;20203;-74
2022/10/28 07:12:41;;;;;;;16.27;14.75;;;11.30;99.90;;;;;;5095682;28;20173;-74
2022/10/28 07:15:07;;;;;;;15.63;14.05;;;11.30;99.90;;;;;;5079725;28;20208;-74
2022/10/28 07:17:32;;;;;;;16.95;15.00;;;11.40;99.90;;;;;;5081628;28;20204;-74
2022/10/28 07:19:58;;;;;;;16.50;14.77;;;11.50;99.90;;;;;;5094346;28;20180;-74
2022/10/28 07:22:24;;;;;;;17.10;14.30;;;11.50;99.90;;;;;;5082192;28;20192;-75
2022/10/28 07:24:49;;;;;;;15.57;13.80;;;11.50;99.90;;;;;;5086776;28;20267;-75
2022/10/28 07:27:15;;;;;;;14.25;12.80;;;11.60;99.90;;;;;;5094754;28;20209;-74
2022/10/28 07:29:40;;;;;;;15.73;12.98;;;11.70;99.90;;;;;;5095000;28;20169;-74
2022/10/28 07:32:06;;;;;;;15.65;13.02;;;11.80;99.90;;;;;;5096519;28;20264;-74
2022/10/28 07:34:31;;;;;;;17.85;16.13;;;11.80;99.90;;;;;;5095833;28;20222;-75
2022/10/28 07:36:57;;;;;;;15.95;13.52;;;11.80;99.90;;;;;;5094579;28;20208;-74
2022/10/28 07:39:23;;;;;;;14.35;13.05;;;11.70;99.90;;;;;;5094921;28;20200;-74
2022/10/28 07:41:48;;;;;;;16.95;15.05;;;11.70;99.90;;;;;;5094772;28;20188;-74
2022/10/28 07:44:14;;;;;;;18.23;15.60;;;11.70;99.90;;;;;;5095944;28;20254;-74
2022/10/28 07:46:39;;;;;;;20.27;15.68;;;11.60;99.90;;;;;;5095683;28;20263;-74
2022/10/28 07:49:05;;;;;;;14.82;13.05;;;11.60;99.90;;;;;;5094573;28;20173;-73
2022/10/28 07:51:31;;;;;;;14.48;13.10;;;11.60;99.90;;;;;;5094662;28;20173;-76
2022/10/28 07:53:57;;;;;;;18.27;16.38;;;11.60;99.90;;;;;;5094742;28;20272;-74
2022/10/28 07:56:23;;;;;;;16.38;14.63;;;11.70;99.90;;;;;;5095069;28;20181;-76
2022/10/28 07:58:49;;;;;;;14.55;13.05;;;11.80;99.90;;;;;;5094293;28;20201;-76
2022/10/28 08:01:16;;;;;;;16.45;13.77;;;11.90;99.90;;;;;;5094565;28;20181;-75
2022/10/28 08:03:42;;;;;;;16.02;14.35;;;12.00;99.90;;;;;;5094433;28;20247;-74
2022/10/28 08:06:16;;;;;;;14.90;12.70;;;12.10;99.90;;;;;;5094285;28;20727;-75
2022/10/28 08:08:43;;;;;;;19.20;17.27;;;12.20;99.90;;;;;;5094142;28;20736;-73
2022/10/28 08:11:13;;;;;;;16.52;15.00;;;12.20;99.90;;;;;;5093809;28;20207;-75
2022/10/28 08:13:39;;;;;;;15.23;13.40;;;12.40;99.90;;;;;;5095647;28;20161;-74
2022/10/28 08:16:04;;;;;;;14.25;12.85;;;12.50;99.90;;;;;;5094661;28;20188;-74
2022/10/28 08:18:30;;;;;;;15.65;13.13;;;12.50;99.90;;;;;;5095232;28;20196;-75
2022/10/28 08:20:59;;;;;;;15.48;12.00;;;12.60;99.90;;;;;;5080125;28;20228;-74
2022/10/28 08:23:25;;;;;;;12.02;10.75;;;12.70;99.90;;;;;;5073708;28;20782;-74
2022/10/28 08:25:51;;;;;;;12.80;11.50;;;12.80;99.90;;;;;;5074420;28;20294;-75
2022/10/28 08:28:17;;;;;;;14.48;11.85;;;12.70;99.90;;;;;;5073250;28;20311;-75
2022/10/28 08:30:43;;;;;;;12.63;10.98;;;12.80;99.90;;;;;;5073484;28;20260;-76
2022/10/28 08:33:09;;;;;;;13.95;11.45;;;12.90;99.90;;;;;;5073442;28;20177;-76
2022/10/28 08:35:34;;;;;;;12.88;11.63;;;13.10;99.90;;;;;;5073448;28;20182;-75
2022/10/28 08:38:00;;;;;;;12.93;10.55;;;13.10;99.90;;;;;;5073259;28;20339;-73
2022/10/28 08:40:50;;;;;;;11.27;9.88;;;13.20;99.90;;;;;;5073101;28;20196;-75
2022/10/28 08:43:43;;;;;;;12.55;11.35;;;13.30;99.90;;;;;;5074433;28;20170;-75
2022/10/28 08:46:43;;;;;;;11.73;10.52;;;13.40;99.90;;;;;;5074410;28;20193;-76
2022/10/28 08:49:12;;;;;;;11.48;9.98;;;13.50;99.90;;;;;;5073605;28;20231;-77
2022/10/28 08:51:50;;;;;;;11.93;9.93;;;13.60;99.90;;;;;;5073440;28;20204;-77
2022/10/28 08:54:41;;;;;;;11.60;9.13;;;13.60;99.90;;;;;;5072909;28;20630;-76
2022/10/28 08:57:15;;;;;;;16.80;11.57;;;13.80;99.90;;;;;;5073025;28;20585;-77
2022/10/28 08:59:42;;;;;;;12.48;10.60;;;13.80;99.90;;;;;;5073151;28;20227;-76
2022/10/28 09:02:21;;;;;;;12.90;10.23;;;13.80;99.90;;;;;;5073149;28;20201;-76
2022/10/28 09:05:09;;;;;;;15.40;10.00;;;14.00;99.90;;;;;;5072962;28;20166;-75
2022/10/28 09:07:35;;;;;;;10.20;8.88;;;14.10;99.90;;;;;;5072484;28;20217;-76
2022/10/28 09:10:04;;;;;;;12.48;8.63;;;14.20;99.90;;;;;;5072580;28;20212;-76
2022/10/28 09:12:49;;;;;;;14.52;8.60;;;14.30;99.90;;;;;;5073031;28;20174;-76
2022/10/28 09:15:38;;;;;;;15.10;9.35;;;14.40;99.90;;;;;;5072787;28;20197;-76
2022/10/28 09:18:21;;;;;;;14.85;9.13;;;14.30;99.90;;;;;;5073075;28;20225;-77
2022/10/28 09:20:57;;;;;;;10.40;8.38;;;14.30;99.90;;;;;;5079230;28;20202;-76
2022/10/28 09:23:27;;;;;;;11.27;8.35;;;14.20;99.90;;;;;;5094514;28;20169;-74
2022/10/28 09:26:07;;;;;;;13.25;7.97;;;14.20;99.90;;;;;;5093246;28;20665;-77
2022/10/28 09:29:08;;;;;;;11.38;9.25;;;14.30;99.90;;;;;;5092896;28;20200;-76
2022/10/28 09:31:37;;;;;;;12.27;8.57;;;14.40;99.90;;;;;;5093832;28;20157;-75
2022/10/28 09:34:17;;;;;;;14.38;8.82;;;14.80;99.90;;;;;;5092717;28;20204;-76
2022/10/28 09:36:48;;;;;;;10.40;7.80;;;15.20;99.90;;;;;;5094332;28;20652;-75
2022/10/28 09:39:21;;;;;;;16.50;7.82;;;15.50;99.90;;;;;;5092653;28;20201;-75
2022/10/28 09:41:49;;;;;;;10.27;7.00;;;15.90;99.90;;;;;;5094309;28;20192;-77
2022/10/28 09:44:52;;;;;;;7.97;6.43;;;16.00;99.90;;;;;;5094061;28;20177;-74
2022/10/28 09:47:25;;;;;;;9.95;6.72;;;16.30;99.90;;;;;;5093207;28;20208;-78
2022/10/28 09:49:55;;;;;;;10.85;6.93;;;16.40;99.90;;;;;;5093666;28;20177;-74
2022/10/28 09:52:29;;;;;;;10.10;6.65;;;16.50;99.90;;;;;;5092891;28;20180;-75
2022/10/28 09:54:56;;;;;;;9.30;7.07;;;16.70;99.90;;;;;;5094079;28;20172;-74
2022/10/28 09:57:29;;;;;;;10.57;7.53;;;16.60;99.90;;;;;;5093366;28;20225;-75
2022/10/28 09:59:55;;;;;;;11.55;7.03;;;16.60;99.90;;;;;;5093405;28;20176;-73
2022/10/28 10:02:27;;;;;;;11.82;7.05;;;16.60;99.90;;;;;;5092429;28;20184;-75
2022/10/28 10:04:57;;;;;;;8.48;6.43;;;16.70;99.90;;;;;;5092827;28;20538;-75
2022/10/28 10:07:27;;;;;;;11.57;7.22;;;16.70;99.90;;;;;;5093346;28;20336;-75
2022/10/28 10:09:52;;;;;;;8.02;6.15;;;16.60;99.90;;;;;;5092075;28;20637;-75
2022/10/28 10:12:18;;;;;;;10.25;6.65;;;16.70;99.90;;;;;;5092495;28;20192;-75
2022/10/28 10:14:47;;;;;;;12.10;6.65;;;16.70;99.90;;;;;;5092895;28;20177;-75
2022/10/28 10:17:20;;;;;;;9.30;6.82;;;16.60;99.90;;;;;;5093411;28;20200;-75
2022/10/28 10:20:00;;;;;;;7.43;6.60;;;16.50;99.90;;;;;;5092213;28;20179;-75
2022/10/28 10:22:35;;;;;;;10.07;6.55;;;16.50;99.90;;;;;;5092656;28;20177;-75
2022/10/28 10:25:01;;;;;;;8.85;6.18;;;16.50;99.90;;;;;;5092707;28;20259;-75
2022/10/28 10:31:06;;;;;;;10.68;6.82;;;16.50;99.90;;;;;;5093421;28;20596;-73
2022/10/28 10:33:35;;;;;;;11.63;6.63;;;16.50;99.90;;;;;;5092025;28;20525;-75
2022/10/28 10:36:02;;;;;;;9.65;6.55;;;16.50;99.90;;;;;;5093267;28;20649;-75
2022/10/28 10:38:30;;;;;;;12.68;6.70;;;16.50;99.90;;;;;;5093267;28;20276;-75
2022/10/28 10:40:56;;;;;;;10.65;6.30;;;16.60;99.90;;;;;;5092258;28;20180;-75
2022/10/28 10:43:24;;;;;;;8.95;6.40;;;16.60;99.90;;;;;;5094107;28;20181;-73
2022/10/28 10:46:12;;;;;;;8.52;6.50;;;16.60;99.90;;;;;;5097581;28;20200;-74
2022/10/28 10:48:38;;;;;;;8.38;5.97;;;16.70;99.90;;;;;;5096063;28;20204;-74
2022/10/28 10:51:16;;;;;;;10.55;6.32;;;16.70;99.90;;;;;;5096062;28;20177;-73
2022/10/28 10:53:47;;;;;;;11.20;6.72;;;16.80;99.90;;;;;;5095766;28;20277;-75
2022/10/28 10:56:21;;;;;;;6.60;5.90;;;16.80;99.90;;;;;;5095825;28;20226;-74
2022/10/28 10:58:50;;;;;;;8.15;5.38;;;16.80;99.90;;;;;;5096437;28;20204;-74
2022/10/28 11:01:25;;;;;;;12.05;6.68;;;16.90;99.90;;;;;;5095984;28;20177;-74
2022/10/28 11:04:00;;;;;;;9.73;6.20;;;17.00;99.90;;;;;;5096465;28;20165;-79
2022/10/28 11:06:35;;;;;;;8.88;6.68;;;17.10;99.90;;;;;;5095448;28;20247;-73
2022/10/28 11:09:04;;;;;;;7.80;6.00;;;17.10;99.90;;;;;;5096003;28;20192;-73
2022/10/28 11:11:37;;;;;;;6.38;5.40;;;17.10;99.90;;;;;;5096808;28;20197;-73
2022/10/28 11:14:31;;;;;;;9.20;5.75;;;17.10;99.90;;;;;;5095516;28;20176;-73
2022/10/28 11:17:00;;;;;;;7.07;5.30;;;17.20;99.90;;;;;;5075099;28;20229;-73
2022/10/28 11:19:35;;;;;;;9.45;6.18;;;17.30;99.90;;;;;;5079154;28;20171;-73
2022/10/28 11:22:12;;;;;;;7.50;5.03;;;17.30;99.90;;;;;;5089158;28;20256;-73
2022/10/28 11:25:38;;;;;;;10.85;5.85;;;17.30;99.90;;;;;;5074655;28;20166;-73
2022/10/28 11:28:18;;;;;;;13.02;7.38;;;17.40;99.90;;;;;;5067239;28;20210;-73
2022/10/28 11:31:10;;;;;;;13.38;7.38;;;17.50;99.90;;;;;;5037449;28;20304;-73
2022/10/28 11:33:49;;;;;;;17.80;8.38;;;17.50;99.90;;;;;;5049610;28;20193;-73
2022/10/28 11:36:52;;;;;;;16.35;7.82;;;17.50;99.90;;;;;;5076544;28;20165;-73
2022/10/28 11:39:36;;;;;;;10.15;7.00;;;17.50;99.90;;;;;;5065416;28;20194;-73
2022/10/28 11:42:21;;;;;;;17.52;7.30;;;17.50;99.90;;;;;;5074953;28;20172;-73
2022/10/28 11:44:58;;;;;;;17.95;9.07;;;17.50;99.90;;;;;;5081715;28;20169;-73
2022/10/28 11:47:42;;;;;;;13.52;8.35;;;17.60;99.90;;;;;;5095414;28;20532;-73
2022/10/28 11:50:33;;;;;;;20.75;11.15;;;17.70;99.90;;;;;;5086574;28;20162;-74
2022/10/28 11:53:28;;;;;;;14.43;7.93;;;17.80;99.90;;;;;;5074444;28;20173;-74
2022/10/28 11:56:02;;;;;;;15.70;6.30;;;17.90;99.90;;;;;;5075400;28;20162;-74
2022/10/28 11:58:36;;;;;;;9.95;5.70;;;17.90;99.90;;;;;;5073961;28;20205;-77
2022/10/28 12:01:18;;;;;;;12.10;7.38;;;17.90;99.90;;;;;;5073962;28;20196;-74
2022/10/28 12:04:02;;;;;;;9.00;5.90;;;17.90;99.90;;;;;;5075075;28;20169;-74
2022/10/28 12:06:45;;;;;;;25.38;6.97;;;17.80;99.90;;;;;;5074750;28;20217;-74
2022/10/28 12:09:35;;;;;;;14.23;6.63;;;17.80;99.90;;;;;;5073976;28;20227;-75
2022/10/28 12:12:41;;;;;;;22.33;6.65;;;17.80;99.90;;;;;;5074826;28;20219;-74
2022/10/28 12:15:22;;;;;;;13.23;5.22;;;17.70;99.90;;;;;;5074698;28;20162;-74
2022/10/28 12:18:40;;;;;;;10.52;5.45;;;17.70;99.90;;;;;;5087823;28;20211;-75
2022/10/28 12:21:13;;;;;;;10.40;5.97;;;17.70;99.90;;;;;;5095075;28;20177;-74
2022/10/28 12:23:40;;;;;;;11.57;5.15;;;17.60;99.90;;;;;;5094943;28;20613;-74
2022/10/28 12:26:09;;;;;;;17.77;7.38;;;17.70;99.90;;;;;;5095209;28;20281;-74
2022/10/28 12:28:50;;;;;;;21.52;6.90;;;17.70;99.90;;;;;;5094629;28;20697;-74
2022/10/28 12:31:23;;;;;;;12.38;5.55;;;17.80;99.90;;;;;;5095034;28;20180;-74
2022/10/28 12:33:54;;;;;;;17.92;5.40;;;17.80;99.90;;;;;;5095002;28;20176;-74
2022/10/28 12:36:37;;;;;;;19.98;5.57;;;17.80;99.90;;;;;;5094244;28;20181;-74
2022/10/28 12:39:14;;;;;;;27.23;5.43;;;17.80;99.90;;;;;;5094278;28;20176;-74
2022/10/28 12:41:46;;;;;;;42.65;7.18;;;17.80;99.90;;;;;;5094260;28;20176;-74
2022/10/28 12:44:23;;;;;;;16.02;5.40;;;17.80;99.90;;;;;;5093875;28;20177;-74
2022/10/28 12:47:19;;;;;;;15.32;5.32;;;17.80;99.90;;;;;;5094962;28;20211;-74
2022/10/28 12:49:53;;;;;;;12.05;5.07;;;17.80;99.90;;;;;;5094337;28;20167;-74
2022/10/28 12:52:26;;;;;;;21.75;5.97;;;17.80;99.90;;;;;;5094725;28;20311;-74
2022/10/28 12:55:23;;;;;;;18.45;4.97;;;17.70;99.90;;;;;;5094073;28;20169;-75
2022/10/28 12:57:56;;;;;;;12.55;5.22;;;17.70;99.90;;;;;;5093918;28;20192;-75
2022/10/28 13:00:30;;;;;;;14.02;4.95;;;17.80;99.90;;;;;;5094746;28;20260;-75
2022/10/28 13:03:03;;;;;;;9.63;4.88;;;17.90;99.90;;;;;;5094902;28;20176;-75
2022/10/28 13:05:50;;;;;;;14.15;5.18;;;17.90;99.90;;;;;;5093437;28;20649;-75
2022/10/28 13:08:50;;;;;;;21.25;5.28;;;18.00;99.90;;;;;;5094084;28;20213;-74
2022/10/28 13:11:36;;;;;;;10.73;4.43;;;18.00;99.90;;;;;;5093521;28;20263;-75
2022/10/28 13:14:58;;;;;;;10.93;4.43;;;18.00;99.90;;;;;;5095296;28;20176;-75
2022/10/28 13:17:36;;;;;;;13.52;5.05;;;17.90;99.90;;;;;;5093323;28;20192;-75
2022/10/28 13:20:26;;;;;;;15.60;5.22;;;17.80;99.90;;;;;;5093817;28;20172;-75
2022/10/28 13:23:16;;;;;;;12.35;5.10;;;17.80;99.90;;;;;;5093697;28;20549;-75
2022/10/28 13:25:44;;;;;;;10.07;4.30;;;17.80;99.90;;;;;;5093095;28;20191;-75
2022/10/28 13:28:14;;;;;;;12.85;5.07;;;17.70;99.90;;;;;;5093189;28;20232;-75
2022/10/28 13:31:11;;;;;;;10.38;4.70;;;17.70;99.90;;;;;;5094448;28;20659;-75
2022/10/28 13:33:38;;;;;;;11.68;4.30;;;17.70;99.90;;;;;;5092554;28;20193;-75
2022/10/28 13:36:15;;;;;;;10.50;4.70;;;17.80;99.90;;;;;;5093651;28;20173;-75
2022/10/28 13:38:41;;;;;;;13.00;4.50;;;17.90;99.90;;;;;;5094888;28;20288;-74
2022/10/28 13:41:10;;;;;;;19.05;5.40;;;17.90;99.90;;;;;;5094000;28;20180;-75
2022/10/28 13:43:48;;;;;;;11.48;4.80;;;17.80;99.90;;;;;;5094855;28;20177;-75
2022/10/28 13:46:52;;;;;;;18.13;4.72;;;17.70;99.90;;;;;;5095433;28;20211;-75
2022/10/28 13:49:27;;;;;;;12.68;4.82;;;17.60;99.90;;;;;;5094033;28;20204;-74
2022/10/28 13:52:12;;;;;;;14.48;4.65;;;17.50;99.90;;;;;;5094026;28;20176;-75
2022/10/28 13:54:43;;;;;;;12.43;4.68;;;17.40;99.90;;;;;;5093258;28;20176;-74
2022/10/28 13:57:34;;;;;;;15.93;5.45;;;17.30;99.90;;;;;;5092977;28;20669;-74
2022/10/28 14:00:03;;;;;;;7.95;5.57;;;17.30;99.90;;;;;;5092892;28;20176;-75
2022/10/28 14:02:38;;;;;;;11.02;5.60;;;17.30;99.90;;;;;;5093030;28;20181;-75
2022/10/28 14:05:09;;;;;;;14.00;5.53;;;17.20;99.90;;;;;;5093081;28;20233;-75
2022/10/28 14:07:49;;;;;;;8.80;6.05;;;17.20;99.90;;;;;;5094194;28;20718;-75
2022/10/28 14:10:35;;;;;;;11.20;6.28;;;17.20;99.90;;;;;;5093560;28;20180;-75
2022/10/28 14:13:19;;;;;;;11.30;6.05;;;17.10;99.90;;;;;;5093178;28;20230;-74
2022/10/28 14:15:46;;;;;;;15.77;6.32;;;17.10;99.90;;;;;;5094634;28;20179;-74
2022/10/28 14:18:12;;;;;;;13.50;6.70;;;17.10;99.90;;;;;;5095992;28;20279;-74
2022/10/28 14:20:45;;;;;;;11.50;6.43;;;17.00;99.90;;;;;;5098934;28;20197;-74
2022/10/28 14:23:19;;;;;;;14.73;6.32;;;17.00;99.90;;;;;;5098735;28;20161;-74
2022/10/28 14:25:53;;;;;;;18.75;7.45;;;17.00;99.90;;;;;;5098990;28;20177;-74
2022/10/28 14:28:28;;;;;;;32.83;7.18;;;16.90;99.90;;;;;;5096833;28;20196;-74
2022/10/28 14:31:11;;;;;;;29.02;8.48;;;16.90;99.90;;;;;;5097268;28;20168;-74
2022/10/28 14:34:08;;;;;;;28.45;7.80;;;16.80;99.90;;;;;;5098414;28;20250;-74
2022/10/28 14:37:11;;;;;;;26.55;8.43;;;16.80;99.90;;;;;;5096672;28;20180;-75
2022/10/28 14:39:52;;;;;;;12.23;7.40;;;16.70;99.90;;;;;;5096661;28;20176;-76
2022/10/28 14:42:33;;;;;;;16.63;6.72;;;16.70;99.90;;;;;;5096389;28;20233;-75
2022/10/28 14:45:15;;;;;;;16.45;7.25;;;16.70;99.90;;;;;;5098039;28;20165;-74
2022/10/28 14:48:19;;;;;;;28.67;7.10;;;16.70;99.90;;;;;;5097633;28;20287;-74
2022/10/28 14:50:51;;;;;;;16.20;6.68;;;16.60;99.90;;;;;;5096401;28;20244;-78
2022/10/28 14:53:33;;;;;;;15.75;6.95;;;16.60;99.90;;;;;;5096413;28;20214;-74
2022/10/28 14:56:03;;;;;;;17.08;7.80;;;16.60;99.90;;;;;;5096710;28;20221;-75
2022/10/28 14:58:35;;;;;;;32.80;7.85;;;16.50;99.90;;;;;;5098578;28;20192;-74
2022/10/28 15:01:37;;;;;;;34.35;8.18;;;16.50;99.90;;;;;;5096611;28;20260;-74
2022/10/28 15:04:11;;;;;;;32.08;8.27;;;16.50;99.90;;;;;;5096858;28;20167;-74
2022/10/28 15:06:40;;;;;;;44.25;8.68;;;16.40;99.90;;;;;;5096728;28;20208;-75
2022/10/28 15:09:21;;;;;;;31.77;7.43;;;16.40;99.90;;;;;;5097084;28;20193;-75
2022/10/28 15:11:51;;;;;;;31.33;8.57;;;16.30;99.90;;;;;;5096675;28;20214;-75
2022/10/28 15:14:27;;;;;;;16.75;7.35;;;16.30;99.90;;;;;;5096869;28;20622;-75
2022/10/28 15:16:53;;;;;;;26.77;8.10;;;16.30;99.90;;;;;;5095514;28;20180;-74
2022/10/28 15:19:24;;;;;;;24.83;8.13;;;16.20;99.90;;;;;;5095468;28;20176;-74
2022/10/28 15:22:06;;;;;;;21.23;7.95;;;16.20;99.90;;;;;;5095960;28;20172;-74
2022/10/28 15:24:32;;;;;;;35.55;19.38;;;16.20;99.90;;;;;;5096094;28;20666;-74
2022/10/28 15:26:58;;;;;;;16.23;10.45;;;16.20;99.90;;;;;;5095506;28;20208;-74
2022/10/28 15:29:24;;;;;;;14.25;8.40;;;16.10;99.90;;;;;;5094966;28;20172;-74
2022/10/28 15:32:28;;;;;;;14.27;7.95;;;16.20;99.90;;;;;;5095582;28;20177;-75
2022/10/28 15:34:55;;;;;;;14.93;8.95;;;16.20;99.90;;;;;;5054185;28;20350;-74
2022/10/28 15:37:24;;;;;;;14.65;8.02;;;16.10;99.90;;;;;;5083361;28;20201;-74
2022/10/28 15:39:52;;;;;;;16.95;7.78;;;16.10;99.90;;;;;;5094806;28;20208;-74
2022/10/28 15:42:40;;;;;;;20.88;10.13;;;16.10;99.90;;;;;;5096000;28;20741;-74
2022/10/28 15:45:19;;;;;;;19.73;8.90;;;16.10;99.90;;;;;;5094998;28;20613;-74
2022/10/28 15:48:29;;;;;;;18.30;7.97;;;16.00;99.90;;;;;;5095836;28;20200;-74
2022/10/28 15:51:17;;;;;;;26.30;16.73;;;16.00;99.90;;;;;;5095065;28;20241;-74
2022/10/28 15:53:44;;;;;;;53.25;31.58;;;15.90;99.90;;;;;;5095073;28;20605;-74
2022/10/28 15:56:12;;;;;;;36.28;21.67;;;15.90;99.90;;;;;;5095512;28;20177;-75
2022/10/28 15:58:44;;;;;;;19.50;10.98;;;15.90;99.90;;;;;;5094657;28;20277;-74
2022/10/28 16:01:26;;;;;;;19.38;8.93;;;15.80;99.90;;;;;;5094799;28;20176;-75
2022/10/28 16:03:52;;;;;;;14.77;7.80;;;15.80;99.90;;;;;;5094455;28;20181;-74
2022/10/28 16:06:33;;;;;;;11.90;7.63;;;15.80;99.90;;;;;;5094407;28;20204;-74
2022/10/28 16:09:12;;;;;;;45.78;28.30;;;15.80;99.90;;;;;;5094469;28;20291;-74
2022/10/28 16:11:42;;;;;;;181.70;100.35;;;15.80;99.90;;;;;;5094268;28;20169;-74
2022/10/28 16:14:30;;;;;;;136.60;78.28;;;15.70;99.90;;;;;;5095459;28;20533;-74
2022/10/28 16:20:26;;;;;;;41.25;23.40;;;15.50;99.90;;;;;;5095549;28;20160;-74
2022/10/28 16:22:52;;;;;;;35.47;20.98;;;15.30;99.90;;;;;;5094003;28;20168;-74
2022/10/28 16:25:20;;;;;;;40.53;25.35;;;15.30;99.90;;;;;;5095245;28;20185;-74
2022/10/28 16:27:49;;;;;;;57.03;37.67;;;15.20;99.90;;;;;;5093719;28;20200;-74
2022/10/28 16:30:15;;;;;;;48.35;33.30;;;15.20;99.90;;;;;;5095048;28;20267;-74
2022/10/28 16:32:44;;;;;;;44.13;31.42;;;15.10;99.90;;;;;;5094411;28;20259;-74
2022/10/28 16:35:15;;;;;;;57.40;31.70;;;15.10;99.90;;;;;;5094086;28;20249;-74
2022/10/28 16:37:46;;;;;;;56.47;31.90;;;15.00;99.90;;;;;;5095701;28;20197;-73
2022/10/28 16:40:12;;;;;;;51.10;29.83;;;15.00;99.90;;;;;;5093555;28;20186;-75
2022/10/28 16:42:39;;;;;;;47.47;29.58;;;15.00;99.90;;;;;;5093781;28;20181;-74
2022/10/28 16:45:06;;;;;;;50.20;30.50;;;15.00;99.90;;;;;;5094739;28;20195;-74
2022/10/28 16:47:43;;;;;;;36.47;21.25;;;14.90;99.90;;;;;;5093325;28;20208;-73
2022/10/28 16:50:55;;;;;;;23.52;10.80;;;14.90;99.90;;;;;;5093547;28;20161;-74
2022/10/28 16:53:21;;;;;;;26.48;10.48;;;14.90;99.90;;;;;;5093835;28;20256;-74
2022/10/28 16:55:47;;;;;;;20.10;9.55;;;14.90;99.90;;;;;;5094087;28;20206;-73
2022/10/28 16:58:14;;;;;;;18.73;8.80;;;14.90;99.90;;;;;;5093237;28;20197;-73
2022/10/28 17:00:40;;;;;;;14.55;8.00;;;14.90;99.90;;;;;;5094125;28;20177;-73
2022/10/28 17:03:21;;;;;;;16.77;7.72;;;14.80;99.90;;;;;;5094560;28;20183;-73
2022/10/28 17:05:47;;;;;;;18.35;10.32;;;14.80;99.90;;;;;;5093982;28;20660;-73
2022/10/28 17:08:13;;;;;;;25.83;17.25;;;14.80;99.90;;;;;;5093318;28;20290;-73
2022/10/28 17:10:40;;;;;;;27.58;14.55;;;14.80;99.90;;;;;;5094379;28;20177;-73
2022/10/28 17:13:16;;;;;;;25.38;10.25;;;14.70;99.90;;;;;;5093044;28;20235;-75
2022/10/28 17:16:18;;;;;;;23.40;12.07;;;14.70;99.90;;;;;;5094104;28;20210;-74
2022/10/28 17:19:36;;;;;;;31.33;13.07;;;14.70;99.90;;;;;;5092848;28;20200;-74
2022/10/28 17:22:04;;;;;;;25.08;10.82;;;14.70;99.90;;;;;;5093864;28;20169;-74
2022/10/28 17:24:30;;;;;;;22.50;10.63;;;14.60;99.90;;;;;;5094513;28;20157;-74
2022/10/28 17:27:09;;;;;;;17.33;8.65;;;14.60;99.90;;;;;;5093392;28;20291;-74
2022/10/28 17:29:42;;;;;;;16.13;8.18;;;14.50;99.90;;;;;;5094925;28;20185;-75
2022/10/28 17:32:08;;;;;;;19.42;8.75;;;14.50;99.90;;;;;;5093520;28;20253;-75
2022/10/28 17:34:35;;;;;;;16.63;8.98;;;14.40;99.90;;;;;;5094073;28;20189;-74
2022/10/28 17:37:00;;;;;;;20.77;8.95;;;14.40;99.90;;;;;;5076489;28;20259;-75
2022/10/28 17:39:26;;;;;;;10.40;8.52;;;14.30;99.90;;;;;;5072673;28;20177;-75
2022/10/28 17:41:58;;;;;;;15.52;10.48;;;14.30;99.90;;;;;;5072912;28;20280;-74
2022/10/28 17:44:25;;;;;;;14.82;8.57;;;14.30;99.90;;;;;;5077957;28;20225;-75
2022/10/28 17:46:51;;;;;;;14.75;7.97;;;14.20;99.90;;;;;;5080856;28;20288;-75
2022/10/28 17:49:17;;;;;;;16.55;7.88;;;14.20;99.90;;;;;;5078959;28;20217;-75
2022/10/28 17:51:43;;;;;;;18.38;8.00;;;14.20;99.90;;;;;;5074405;28;20174;-75
2022/10/28 17:54:09;;;;;;;15.10;7.95;;;14.10;99.90;;;;;;5074228;28;20200;-74
2022/10/28 17:56:36;;;;;;;13.20;7.82;;;14.10;99.90;;;;;;5076230;28;20200;-74
2022/10/28 17:59:03;;;;;;;18.33;8.18;;;14.00;99.90;;;;;;5078883;28;20193;-74
2022/10/28 18:01:31;;;;;;;15.40;8.15;;;14.00;99.90;;;;;;5077434;28;20188;-75
2022/10/28 18:04:03;;;;;;;12.85;8.05;;;13.90;99.90;;;;;;5075304;28;20189;-75
2022/10/28 18:06:32;;;;;;;16.00;8.60;;;13.80;99.90;;;;;;5074387;28;20209;-74
2022/10/28 18:08:59;;;;;;;17.45;7.88;;;13.70;99.90;;;;;;5074962;28;20269;-75
2022/10/28 18:11:26;;;;;;;12.38;8.30;;;13.70;99.90;;;;;;5095878;28;20547;-74
2022/10/28 18:14:07;;;;;;;15.57;9.90;;;13.70;99.90;;;;;;5095108;28;20173;-73
2022/10/28 18:16:40;;;;;;;13.82;8.90;;;13.70;99.90;;;;;;5100471;28;20208;-75
2022/10/28 18:19:15;;;;;;;18.08;10.32;;;13.70;99.90;;;;;;5076391;28;20166;-74
2022/10/28 18:21:43;;;;;;;11.43;8.25;;;13.70;99.90;;;;;;5074910;28;20173;-74
2022/10/28 18:24:09;;;;;;;17.45;7.88;;;13.70;99.90;;;;;;5074906;28;20177;-74
2022/10/28 18:26:40;;;;;;;11.70;8.38;;;13.60;99.90;;;;;;5073968;28;20193;-73
2022/10/28 18:29:08;;;;;;;15.82;8.77;;;13.60;99.90;;;;;;5077501;28;20166;-73
2022/10/28 18:31:41;;;;;;;17.00;10.40;;;13.60;99.90;;;;;;5074172;28;20173;-74
2022/10/28 18:34:07;;;;;;;17.17;9.50;;;13.50;99.90;;;;;;5076162;28;20177;-74
2022/10/28 18:36:34;;;;;;;17.45;8.80;;;13.50;99.90;;;;;;5077111;28;20188;-73
2022/10/28 18:39:01;;;;;;;13.32;7.28;;;13.50;99.90;;;;;;5073848;28;20209;-74
2022/10/28 18:41:36;;;;;;;13.80;6.75;;;13.60;99.90;;;;;;5073451;28;20212;-75
2022/10/28 18:44:03;;;;;;;12.05;7.32;;;13.70;99.90;;;;;;5072857;28;20572;-74
2022/10/28 18:46:39;;;;;;;15.85;7.35;;;13.70;99.90;;;;;;5071465;28;20208;-74
2022/10/28 18:49:05;;;;;;;15.70;8.00;;;13.60;99.90;;;;;;5072894;28;20168;-74
2022/10/28 18:51:58;;;;;;;13.20;7.35;;;13.60;99.90;;;;;;5072934;28;20173;-74
2022/10/28 18:54:32;;;;;;;13.60;7.43;;;13.60;99.90;;;;;;5072973;28;20259;-74
2022/10/28 18:56:58;;;;;;;14.10;6.80;;;13.50;99.90;;;;;;5072825;28;20164;-74
2022/10/28 18:59:23;;;;;;;15.60;7.20;;;13.50;99.90;;;;;;5071478;28;20272;-74
2022/10/28 19:01:49;;;;;;;17.08;6.68;;;13.50;99.90;;;;;;5072594;28;20181;-74
2022/10/28 19:07:37;;;;;;;14.38;6.82;;;13.40;99.90;;;;;;5076077;28;20316;-74
2022/10/28 19:10:43;;;;;;;12.20;7.60;;;13.40;99.90;;;;;;5076439;28;20597;-73
2022/10/28 19:13:12;;;;;;;12.90;6.80;;;13.40;99.90;;;;;;5075124;28;20157;-75
2022/10/28 19:15:58;;;;;;;15.48;6.70;;;13.30;99.90;;;;;;5076375;28;20169;-72
2022/10/28 19:18:24;;;;;;;10.88;7.28;;;13.30;99.90;;;;;;5074822;28;20196;-72
2022/10/28 19:21:30;;;;;;;9.90;6.78;;;13.30;99.90;;;;;;5076231;28;20169;-72
2022/10/28 19:23:56;;;;;;;13.55;8.75;;;13.30;99.90;;;;;;5076330;28;20160;-72
2022/10/28 19:26:22;;;;;;;17.80;8.20;;;13.30;99.90;;;;;;5074580;28;20209;-72
2022/10/28 19:28:57;;;;;;;15.57;8.00;;;13.20;99.90;;;;;;5075915;28;20197;-72
2022/10/28 19:31:25;;;;;;;12.68;7.13;;;13.20;99.90;;;;;;5074628;28;20169;-73